createdAt,value
2019-01-11T00:00:47.201Z,8.67
2019-01-11T00:03:15.772Z,9.20
2019-01-11T00:05:44.295Z,9.60
2019-01-11T00:08:12.766Z,9.93
2019-01-11T00:10:41.155Z,8.90
2019-01-11T00:13:09.541Z,9.07
2019-01-11T00:15:38.316Z,9.23
2019-01-11T00:18:06.861Z,8.60
2019-01-11T00:20:35.538Z,8.00
2019-01-11T00:23:04.189Z,8.00
2019-01-11T00:25:32.580Z,8.50
2019-01-11T00:28:01.008Z,7.93
2019-01-11T00:30:29.381Z,7.83
2019-01-11T00:32:57.773Z,8.80
2019-01-11T00:35:26.176Z,8.40
2019-01-11T00:37:54.565Z,7.70
2019-01-11T00:40:22.978Z,8.17
2019-01-11T00:42:51.361Z,7.27
2019-01-11T00:45:19.749Z,7.60
2019-01-11T00:47:48.161Z,8.77
2019-01-11T00:50:16.776Z,7.20
2019-01-11T00:52:45.160Z,6.73
2019-01-11T00:55:14.193Z,8.23
2019-01-11T00:57:42.609Z,7.67
2019-01-11T01:00:14.110Z,7.43
2019-01-11T01:02:42.504Z,7.33
2019-01-11T01:05:11.241Z,8.10
2019-01-11T01:07:39.642Z,7.27
2019-01-11T01:10:08.174Z,6.90
2019-01-11T01:12:36.837Z,7.80
2019-01-11T01:15:26.093Z,7.33
2019-01-11T01:17:54.481Z,7.37
2019-01-11T01:20:22.956Z,8.27
2019-01-11T01:22:51.416Z,7.53
2019-01-11T01:25:19.800Z,6.43
2019-01-11T01:27:48.509Z,7.43
2019-01-11T01:30:20.788Z,6.97
2019-01-11T01:32:49.173Z,6.33
2019-01-11T01:35:17.780Z,7.23
2019-01-11T01:37:46.242Z,7.07
2019-01-11T01:40:16.268Z,6.60
2019-01-11T01:42:44.675Z,6.90
2019-01-11T01:45:15.969Z,6.67
2019-01-11T01:47:44.374Z,7.17
2019-01-11T01:50:13.197Z,6.93
2019-01-11T01:52:41.666Z,7.23
2019-01-11T01:55:12.501Z,7.37
2019-01-11T01:57:40.892Z,7.37
2019-01-11T02:00:13.203Z,7.17
2019-01-11T02:02:41.592Z,7.60
2019-01-11T02:05:10.432Z,7.27
2019-01-11T02:07:38.842Z,7.10
2019-01-11T02:10:10.165Z,6.67
2019-01-11T02:12:38.819Z,7.67
2019-01-11T02:15:08.936Z,6.77
2019-01-11T02:17:37.412Z,6.90
2019-01-11T02:20:08.873Z,6.73
2019-01-11T02:22:37.277Z,7.00
2019-01-11T02:25:06.609Z,7.00
2019-01-11T02:27:34.992Z,7.27
2019-01-11T02:30:05.309Z,7.50
2019-01-11T02:32:33.780Z,7.17
2019-01-11T02:35:02.161Z,7.90
2019-01-11T02:37:30.873Z,7.37
2019-01-11T02:39:59.275Z,7.53
2019-01-11T02:42:27.681Z,6.43
2019-01-11T02:44:56.078Z,7.17
2019-01-11T02:47:24.463Z,6.77
2019-01-11T02:49:52.856Z,7.73
2019-01-11T02:52:21.250Z,6.90
2019-01-11T02:54:49.658Z,7.43
2019-01-11T02:57:18.052Z,7.77
2019-01-11T02:59:46.688Z,8.00
2019-01-11T03:02:15.081Z,7.87
2019-01-11T03:04:43.474Z,7.80
2019-01-11T03:07:12.074Z,7.90
2019-01-11T03:09:40.452Z,7.67
2019-01-11T03:12:08.840Z,7.40
2019-01-11T03:14:37.261Z,7.57
2019-01-11T03:17:05.724Z,6.93
2019-01-11T03:19:34.108Z,7.03
2019-01-11T03:22:02.516Z,6.97
2019-01-11T03:24:30.898Z,6.30
2019-01-11T03:26:59.309Z,7.00
2019-01-11T03:29:27.700Z,6.63
2019-01-11T03:31:56.091Z,6.53
2019-01-11T03:34:24.508Z,5.80
2019-01-11T03:36:52.911Z,6.53
2019-01-11T03:39:21.545Z,5.83
2019-01-11T03:41:51.593Z,6.47
2019-01-11T03:44:20.002Z,7.23
2019-01-11T03:46:48.385Z,6.90
2019-01-11T03:49:17.133Z,6.53
2019-01-11T03:51:45.517Z,7.17
2019-01-11T03:54:13.906Z,5.93
2019-01-11T03:56:42.301Z,6.30
2019-01-11T03:59:10.685Z,6.20
2019-01-11T04:01:39.090Z,5.97
2019-01-11T04:04:07.545Z,6.40
2019-01-11T04:06:35.928Z,5.87
2019-01-11T04:09:07.418Z,6.13
2019-01-11T04:11:35.797Z,7.03
2019-01-11T04:14:04.990Z,6.47
2019-01-11T04:16:33.403Z,5.87
2019-01-11T04:19:03.457Z,6.10
2019-01-11T04:21:31.852Z,6.90
2019-01-11T04:24:00.245Z,7.10
2019-01-11T04:26:28.979Z,6.30
2019-01-11T04:28:57.364Z,6.83
2019-01-11T04:31:25.757Z,6.80
2019-01-11T04:33:54.163Z,6.37
2019-01-11T04:36:22.548Z,5.77
2019-01-11T04:38:50.940Z,6.50
2019-01-11T04:41:19.333Z,7.93
2019-01-11T04:43:47.725Z,6.97
2019-01-11T04:46:16.104Z,7.10
2019-01-11T04:48:44.515Z,7.07
2019-01-11T04:51:12.911Z,7.70
2019-01-11T04:53:41.309Z,6.23
2019-01-11T04:56:09.761Z,6.07
2019-01-11T04:58:38.153Z,6.40
2019-01-11T05:01:06.556Z,5.83
2019-01-11T05:03:34.951Z,6.47
2019-01-11T05:06:03.346Z,6.87
2019-01-11T05:08:31.743Z,6.40
2019-01-11T05:11:00.135Z,6.93
2019-01-11T05:13:30.178Z,7.07
2019-01-11T05:15:58.564Z,6.27
2019-01-11T05:18:26.965Z,6.10
2019-01-11T05:20:55.652Z,6.77
2019-01-11T05:23:24.044Z,7.20
2019-01-11T05:25:52.435Z,6.70
2019-01-11T05:28:20.832Z,6.13
2019-01-11T05:30:49.239Z,6.50
2019-01-11T05:33:17.631Z,6.50
2019-01-11T05:35:46.042Z,6.20
2019-01-11T05:38:14.463Z,6.00
2019-01-11T05:40:42.849Z,6.37
2019-01-11T05:43:11.249Z,5.80
2019-01-11T05:45:39.636Z,5.50
2019-01-11T05:48:08.030Z,5.90
2019-01-11T05:50:36.446Z,6.27
2019-01-11T05:53:04.856Z,7.63
2019-01-11T05:55:46.734Z,6.57
2019-01-11T05:58:22.620Z,6.47
2019-01-11T06:00:51.068Z,6.07
2019-01-11T06:03:19.515Z,7.00
2019-01-11T06:05:47.896Z,6.50
2019-01-11T06:08:20.052Z,6.33
2019-01-11T06:10:48.532Z,7.40
2019-01-11T06:13:16.926Z,7.87
2019-01-11T06:15:45.329Z,6.77
2019-01-11T06:18:13.985Z,5.90
2019-01-11T06:20:42.458Z,6.13
2019-01-11T06:23:10.845Z,6.13
2019-01-11T06:25:39.250Z,6.10
2019-01-11T06:28:07.724Z,6.03
2019-01-11T06:30:36.348Z,5.67
2019-01-11T06:33:04.825Z,6.07
2019-01-11T06:35:33.295Z,5.93
2019-01-11T06:38:01.694Z,5.90
2019-01-11T06:40:30.089Z,5.43
2019-01-11T06:43:03.515Z,6.23
2019-01-11T06:45:28.665Z,5.20
2019-01-11T06:47:57.100Z,6.50
2019-01-11T06:50:25.508Z,5.60
2019-01-11T06:52:53.904Z,6.40
2019-01-11T06:55:22.292Z,5.67
2019-01-11T06:58:10.049Z,5.80
2019-01-11T07:00:38.437Z,6.17
2019-01-11T07:03:06.917Z,6.37
2019-01-11T07:05:35.333Z,6.43
2019-01-11T07:08:03.732Z,7.47
2019-01-11T07:10:32.125Z,7.40
2019-01-11T07:13:20.056Z,7.40
2019-01-11T07:15:48.444Z,6.80
2019-01-11T07:18:16.843Z,7.37
2019-01-11T07:20:45.245Z,6.47
2019-01-11T07:23:13.800Z,7.43
2019-01-11T07:25:42.260Z,6.73
2019-01-11T07:28:13.762Z,6.00
2019-01-11T07:30:45.434Z,5.47
2019-01-11T07:33:15.085Z,5.93
2019-01-11T07:35:45.114Z,6.03
2019-01-11T07:38:13.526Z,5.93
2019-01-11T07:40:41.982Z,5.30
2019-01-11T07:43:10.385Z,6.07
2019-01-11T07:45:38.778Z,6.30
2019-01-11T07:48:07.181Z,5.83
2019-01-11T07:50:35.584Z,6.13
2019-01-11T07:53:09.885Z,5.20
2019-01-11T07:55:38.275Z,7.90
2019-01-11T07:58:07.756Z,4.87
2019-01-11T08:00:36.234Z,5.07
2019-01-11T08:03:04.781Z,4.63
2019-01-11T08:05:33.169Z,4.83
2019-01-11T08:08:01.835Z,4.30
2019-01-11T08:10:30.220Z,5.17
2019-01-11T08:12:58.603Z,4.30
2019-01-11T08:15:27.148Z,5.63
2019-01-11T08:17:55.854Z,5.07
2019-01-11T08:20:24.231Z,5.20
2019-01-11T08:23:11.962Z,5.27
2019-01-11T08:25:40.370Z,6.20
2019-01-11T08:28:09.025Z,5.80
2019-01-11T08:30:37.432Z,5.13
2019-01-11T08:33:05.819Z,5.70
2019-01-11T08:35:34.226Z,4.90
2019-01-11T08:38:02.605Z,5.20
2019-01-11T08:40:31.003Z,5.23
2019-01-11T08:42:59.389Z,6.27
2019-01-11T08:45:27.925Z,6.40
2019-01-11T08:47:56.341Z,10.20
2019-01-11T08:50:24.735Z,6.47
2019-01-11T08:52:53.117Z,7.13
2019-01-11T08:55:21.517Z,6.63
2019-01-11T08:57:49.906Z,6.77
2019-01-11T09:00:18.297Z,6.13
2019-01-11T09:02:47.013Z,6.30
2019-01-11T09:05:15.737Z,6.10
2019-01-11T09:07:44.434Z,6.73
2019-01-11T09:10:22.819Z,6.23
2019-01-11T09:12:49.051Z,5.63
2019-01-11T09:15:17.470Z,6.93
2019-01-11T09:18:02.596Z,6.43
2019-01-11T09:20:31.210Z,6.70
2019-01-11T09:22:59.614Z,5.93
2019-01-11T09:25:28.002Z,5.87
2019-01-11T09:27:56.406Z,6.83
2019-01-11T09:30:24.790Z,5.53
2019-01-11T09:32:53.182Z,5.80
2019-01-11T09:35:21.649Z,5.53
2019-01-11T09:37:50.057Z,5.87
2019-01-11T09:40:18.469Z,6.90
2019-01-11T09:42:46.858Z,6.40
2019-01-11T09:45:15.245Z,6.53
2019-01-11T09:47:43.883Z,6.23
2019-01-11T09:50:12.410Z,5.90
2019-01-11T09:52:40.796Z,5.77
2019-01-11T09:55:09.733Z,7.33
2019-01-11T09:57:38.133Z,5.90
2019-01-11T10:00:12.273Z,6.27
2019-01-11T10:02:41.212Z,5.63
2019-01-11T10:05:10.132Z,6.83
2019-01-11T10:07:38.885Z,6.70
2019-01-11T10:10:10.347Z,6.17
2019-01-11T10:12:38.746Z,5.80
2019-01-11T10:15:09.473Z,5.37
2019-01-11T10:17:38.243Z,5.60
2019-01-11T10:20:09.655Z,7.03
2019-01-11T10:22:38.033Z,6.80
2019-01-11T10:25:09.065Z,6.03
2019-01-11T10:27:37.616Z,6.57
2019-01-11T10:30:17.480Z,5.77
2019-01-11T10:32:45.942Z,9.43
2019-01-11T10:35:14.469Z,7.37
2019-01-11T10:37:42.932Z,6.17
2019-01-11T10:40:13.875Z,6.10
2019-01-11T10:42:42.945Z,6.27
2019-01-11T10:45:16.809Z,5.67
2019-01-11T10:47:45.197Z,5.73
2019-01-11T10:50:18.001Z,5.80
2019-01-11T10:52:46.458Z,6.00
2019-01-11T10:55:16.401Z,5.37
2019-01-11T10:57:45.205Z,5.57
2019-01-11T11:00:16.429Z,5.73
2019-01-11T11:02:44.821Z,5.77
2019-01-11T11:05:13.416Z,5.50
2019-01-11T11:07:41.813Z,5.10
2019-01-11T11:10:12.690Z,5.33
2019-01-11T11:12:41.073Z,5.97
2019-01-11T11:15:12.326Z,5.57
2019-01-11T11:17:40.729Z,6.03
2019-01-11T11:20:12.157Z,5.87
2019-01-11T11:22:40.562Z,6.30
2019-01-11T11:25:12.085Z,5.93
2019-01-11T11:27:40.499Z,5.90
2019-01-11T11:30:11.705Z,6.07
2019-01-11T11:32:55.495Z,5.80
2019-01-11T11:35:24.140Z,6.17
2019-01-11T11:37:52.865Z,5.73
2019-01-11T11:40:21.342Z,5.10
2019-01-11T11:42:49.724Z,6.50
2019-01-11T11:45:18.130Z,5.57
2019-01-11T11:47:46.661Z,5.47
2019-01-11T11:50:15.049Z,5.17
2019-01-11T11:52:43.440Z,4.80
2019-01-11T11:55:11.970Z,5.00
2019-01-11T11:57:40.373Z,4.97
2019-01-11T12:00:20.312Z,5.87
2019-01-11T12:02:48.720Z,5.17
2019-01-11T12:05:17.113Z,5.33
2019-01-11T12:07:45.504Z,5.03
2019-01-11T12:10:15.822Z,5.33
2019-01-11T12:12:44.294Z,5.73
2019-01-11T12:15:14.225Z,5.33
2019-01-11T12:17:42.685Z,18.27
2019-01-11T12:20:23.460Z,12.60
2019-01-11T12:22:51.903Z,6.30
2019-01-11T12:25:20.314Z,4.90
2019-01-11T12:27:49.619Z,5.30
2019-01-11T12:30:18.498Z,4.83
2019-01-11T12:32:46.897Z,4.97
2019-01-11T12:35:15.378Z,6.60
2019-01-11T12:37:43.757Z,5.97
2019-01-11T12:40:15.499Z,5.20
2019-01-11T12:42:43.901Z,5.27
2019-01-11T12:45:14.446Z,5.40
2019-01-11T12:47:42.970Z,5.83
2019-01-11T12:50:20.447Z,5.97
2019-01-11T12:52:48.916Z,6.93
2019-01-11T12:55:17.297Z,5.43
2019-01-11T12:57:45.757Z,5.77
2019-01-11T13:00:16.704Z,5.97
2019-01-11T13:02:45.109Z,6.07
2019-01-11T13:05:16.458Z,5.37
2019-01-11T13:07:44.857Z,5.67
2019-01-11T13:10:15.487Z,5.70
2019-01-11T13:12:43.870Z,5.43
2019-01-11T13:15:14.741Z,5.27
2019-01-11T13:17:43.123Z,6.37
2019-01-11T13:20:13.755Z,6.10
2019-01-11T13:22:42.398Z,5.30
2019-01-11T13:25:11.025Z,6.43
2019-01-11T13:27:39.609Z,5.63
2019-01-11T13:30:13.649Z,6.20
2019-01-11T13:32:42.177Z,5.80
2019-01-11T13:35:10.814Z,6.30
2019-01-11T13:37:39.200Z,5.40
2019-01-11T13:40:16.290Z,5.30
2019-01-11T13:42:44.696Z,5.53
2019-01-11T13:45:13.731Z,5.70
2019-01-11T13:47:42.224Z,6.40
2019-01-11T13:50:16.636Z,6.90
2019-01-11T13:52:45.273Z,5.37
2019-01-11T13:55:13.661Z,5.67
2019-01-11T13:57:42.085Z,7.07
2019-01-11T14:00:15.003Z,5.67
2019-01-11T14:02:43.533Z,9.97
2019-01-11T14:05:11.923Z,6.70
2019-01-11T14:07:40.409Z,5.53
2019-01-11T14:10:08.857Z,5.60
2019-01-11T14:12:37.540Z,5.93
2019-01-11T14:15:08.564Z,5.60
2019-01-11T14:17:38.357Z,5.77
2019-01-11T14:20:11.338Z,5.70
2019-01-11T14:22:59.069Z,5.43
2019-01-11T14:25:27.457Z,5.47
2019-01-11T14:27:55.863Z,5.97
2019-01-11T14:30:24.529Z,5.40
2019-01-11T14:32:53.040Z,5.93
2019-01-11T14:35:21.429Z,5.43
2019-01-11T14:37:49.818Z,5.57
2019-01-11T14:40:18.233Z,5.73
2019-01-11T14:42:46.621Z,6.30
2019-01-11T14:45:16.741Z,5.97
2019-01-11T14:47:45.444Z,6.50
2019-01-11T14:50:15.986Z,6.40
2019-01-11T14:52:45.082Z,7.30
2019-01-11T14:55:13.541Z,5.90
2019-01-11T14:57:42.269Z,5.93
2019-01-11T15:00:17.410Z,8.63
2019-01-11T15:02:45.858Z,7.60
2019-01-11T15:05:15.798Z,6.33
2019-01-11T15:07:44.186Z,6.23
2019-01-11T15:10:14.373Z,8.37
2019-01-11T15:12:43.797Z,9.80
2019-01-11T15:15:12.462Z,8.60
2019-01-11T15:17:40.954Z,9.47
2019-01-11T15:20:12.419Z,7.27
2019-01-11T15:22:40.889Z,7.93
2019-01-11T15:25:10.747Z,6.77
2019-01-11T15:27:39.146Z,7.80
2019-01-11T15:30:10.849Z,6.20
2019-01-11T15:32:39.305Z,6.97
2019-01-11T15:35:08.855Z,8.03
2019-01-11T15:37:37.327Z,6.83
2019-01-11T15:40:15.001Z,7.27
2019-01-11T15:42:43.393Z,7.97
2019-01-11T15:45:11.785Z,6.93
2019-01-11T15:47:40.926Z,7.67
2019-01-11T15:50:12.125Z,7.63
2019-01-11T15:52:40.520Z,7.63
2019-01-11T15:55:10.605Z,7.90
2019-01-11T15:57:41.830Z,7.73
2019-01-11T16:00:13.280Z,6.37
2019-01-11T16:02:41.713Z,7.27
2019-01-11T16:05:10.137Z,7.07
2019-01-11T16:07:38.527Z,7.53
2019-01-11T16:10:12.801Z,6.47
2019-01-11T16:12:41.274Z,6.23
2019-01-11T16:15:27.921Z,7.30
2019-01-11T16:18:02.045Z,5.47
2019-01-11T16:20:30.425Z,5.30
2019-01-11T16:22:58.834Z,5.37
2019-01-11T16:25:27.224Z,5.60
2019-01-11T16:27:55.782Z,5.07
2019-01-11T16:30:24.355Z,5.03
2019-01-11T16:32:52.738Z,5.13
2019-01-11T16:35:21.130Z,5.20
2019-01-11T16:37:49.533Z,5.60
2019-01-11T16:40:17.917Z,5.87
2019-01-11T16:42:46.317Z,6.23
2019-01-11T16:45:15.449Z,5.90
2019-01-11T16:47:44.117Z,5.57
2019-01-11T16:50:15.141Z,5.20
2019-01-11T16:52:46.553Z,5.20
2019-01-11T16:55:13.642Z,5.47
2019-01-11T16:57:42.025Z,5.17
2019-01-11T17:00:18.628Z,6.00
2019-01-11T17:02:47.029Z,5.53
2019-01-11T17:05:15.883Z,5.33
2019-01-11T17:07:44.354Z,5.30
2019-01-11T17:10:13.324Z,5.93
2019-01-11T17:12:42.125Z,5.53
2019-01-11T17:15:13.812Z,5.77
2019-01-11T17:17:42.207Z,5.67
2019-01-11T17:20:16.314Z,4.93
2019-01-11T17:22:44.789Z,5.10
2019-01-11T17:25:13.559Z,5.00
2019-01-11T17:27:42.422Z,7.17
2019-01-11T17:30:14.049Z,6.60
2019-01-11T17:32:42.524Z,6.37
2019-01-11T17:35:11.079Z,6.30
2019-01-11T17:37:39.526Z,5.37
2019-01-11T17:40:10.353Z,5.70
2019-01-11T17:42:38.758Z,4.73
2019-01-11T17:45:10.971Z,5.33
2019-01-11T17:47:39.543Z,4.87
2019-01-11T17:50:11.096Z,5.53
2019-01-11T17:52:39.474Z,4.70
2019-01-11T17:55:08.146Z,4.90
2019-01-11T17:57:36.537Z,5.13
2019-01-11T18:00:11.033Z,4.90
2019-01-11T18:02:39.435Z,4.87
2019-01-11T18:05:09.759Z,4.67
2019-01-11T18:07:38.239Z,4.47
2019-01-11T18:10:08.756Z,4.83
2019-01-11T18:12:37.145Z,5.10
2019-01-11T18:15:08.653Z,5.77
2019-01-11T18:17:37.038Z,4.80
2019-01-11T18:20:08.504Z,5.57
2019-01-11T18:22:36.902Z,5.63
2019-01-11T18:25:06.428Z,5.53
2019-01-11T18:27:35.169Z,4.73
2019-01-11T18:30:05.433Z,5.27
2019-01-11T18:32:33.813Z,4.23
2019-01-11T18:35:02.222Z,5.40
2019-01-11T18:37:30.613Z,4.73
2019-01-11T18:39:59.013Z,5.93
2019-01-11T18:42:27.414Z,6.37
2019-01-11T18:44:55.797Z,5.83
2019-01-11T18:47:24.205Z,7.53
2019-01-11T18:49:52.603Z,6.07
2019-01-11T18:52:20.991Z,6.83
2019-01-11T18:54:49.577Z,9.57
2019-01-11T18:57:18.046Z,8.30
2019-01-11T18:59:46.473Z,7.70
2019-01-11T19:02:14.941Z,6.97
2019-01-11T19:04:43.405Z,5.53
2019-01-11T19:07:11.835Z,5.50
2019-01-11T19:09:40.310Z,5.90
2019-01-11T19:12:08.701Z,6.47
2019-01-11T19:14:37.177Z,8.73
2019-01-11T19:17:05.634Z,7.63
2019-01-11T19:19:34.374Z,10.13
2019-01-11T19:22:02.784Z,8.40
2019-01-11T19:24:31.182Z,7.13
2019-01-11T19:26:59.568Z,6.13
2019-01-11T19:29:28.107Z,6.73
2019-01-11T19:31:56.569Z,6.87
2019-01-11T19:34:24.953Z,6.70
2019-01-11T19:36:53.491Z,6.60
2019-01-11T19:39:21.913Z,6.97
2019-01-11T19:41:50.621Z,9.93
2019-01-11T19:44:19.064Z,10.77
2019-01-11T19:46:47.521Z,7.30
2019-01-11T19:49:16.044Z,6.83
2019-01-11T19:51:44.512Z,6.70
2019-01-11T19:54:12.886Z,6.93
2019-01-11T19:56:41.305Z,7.33
2019-01-11T19:59:09.706Z,8.73
2019-01-11T20:01:38.222Z,8.40
2019-01-11T20:04:06.733Z,8.00
2019-01-11T20:06:35.126Z,8.60
2019-01-11T20:09:05.115Z,7.83
2019-01-11T20:11:33.841Z,8.53
2019-01-11T20:14:02.219Z,6.83
2019-01-11T20:16:30.609Z,7.23
2019-01-11T20:18:59.025Z,7.23
2019-01-11T20:21:27.471Z,7.50
2019-01-11T20:23:55.853Z,7.60
2019-01-11T20:26:24.301Z,7.03
2019-01-11T20:28:53.029Z,6.37
2019-01-11T20:31:21.417Z,6.27
2019-01-11T20:33:50.149Z,8.13
2019-01-11T20:36:18.633Z,7.60
2019-01-11T20:38:47.085Z,6.50
2019-01-11T20:41:15.798Z,6.97
2019-01-11T20:43:44.265Z,7.20
2019-01-11T20:46:12.655Z,7.23
2019-01-11T20:48:41.939Z,6.87
2019-01-11T20:51:10.405Z,7.43
2019-01-11T20:53:41.687Z,7.07
2019-01-11T20:56:08.927Z,7.37
2019-01-11T20:58:37.421Z,6.73
2019-01-11T21:01:06.702Z,7.13
2019-01-11T21:03:35.085Z,6.57
2019-01-11T21:06:03.861Z,6.83
2019-01-11T21:08:32.393Z,7.40
2019-01-11T21:11:00.870Z,7.00
2019-01-11T21:13:29.492Z,6.80
2019-01-11T21:15:57.885Z,6.87
2019-01-11T21:18:26.347Z,7.10
2019-01-11T21:20:54.733Z,6.23
2019-01-11T21:23:23.133Z,6.33
2019-01-11T21:25:51.592Z,6.60
2019-01-11T21:28:20.151Z,6.00
2019-01-11T21:30:48.541Z,5.90
2019-01-11T21:33:16.970Z,5.57
2019-01-11T21:35:45.421Z,5.77
2019-01-11T21:38:13.809Z,6.30
2019-01-11T21:40:42.201Z,6.87
2019-01-11T21:43:10.601Z,7.00
2019-01-11T21:45:39.014Z,6.90
2019-01-11T21:48:07.437Z,6.13
2019-01-11T21:50:35.918Z,7.10
2019-01-11T21:53:04.669Z,7.13
2019-01-11T21:55:33.085Z,6.83
2019-01-11T21:58:01.486Z,7.17
2019-01-11T22:00:32.884Z,6.90
2019-01-11T22:03:01.291Z,6.67
2019-01-11T22:05:29.665Z,6.73
2019-01-11T22:07:58.126Z,6.57
2019-01-11T22:10:26.541Z,7.17
2019-01-11T22:12:55.022Z,6.20
2019-01-11T22:15:23.580Z,6.90
2019-01-11T22:17:52.033Z,5.90
2019-01-11T22:20:20.502Z,5.90
2019-01-11T22:22:48.937Z,7.10
2019-01-11T22:25:18.742Z,5.57
2019-01-11T22:27:47.140Z,7.27
2019-01-11T22:30:20.506Z,5.97
2019-01-11T22:32:48.906Z,6.53
2019-01-11T22:35:18.451Z,6.47
2019-01-11T22:37:47.143Z,6.47
2019-01-11T22:40:18.241Z,6.73
2019-01-11T22:42:47.473Z,9.30
2019-01-11T22:45:15.949Z,6.63
2019-01-11T22:47:44.506Z,6.73
2019-01-11T22:50:15.028Z,6.63
2019-01-11T22:53:04.286Z,6.53
2019-01-11T22:55:32.887Z,7.17
2019-01-11T22:58:01.286Z,6.97
2019-01-11T23:00:57.070Z,6.47
2019-01-11T23:03:28.756Z,6.00
2019-01-11T23:06:00.212Z,6.03
2019-01-11T23:08:28.616Z,6.07
2019-01-11T23:11:19.396Z,6.30
2019-01-11T23:13:48.030Z,5.57
2019-01-11T23:16:22.210Z,4.87
2019-01-11T23:18:52.235Z,5.23
2019-01-11T23:21:20.613Z,5.70
2019-01-11T23:23:49.047Z,5.27
2019-01-11T23:26:17.478Z,4.70
2019-01-11T23:28:45.929Z,5.10
2019-01-11T23:31:14.371Z,4.93
2019-01-11T23:33:42.753Z,4.43
2019-01-11T23:36:11.137Z,4.73
2019-01-11T23:38:39.542Z,4.30
2019-01-11T23:41:07.933Z,4.40
2019-01-11T23:43:36.320Z,5.13
2019-01-11T23:46:04.857Z,4.47
2019-01-11T23:48:33.254Z,5.17
2019-01-11T23:51:01.649Z,4.27
2019-01-11T23:53:30.037Z,4.17
2019-01-11T23:55:58.444Z,3.97
2019-01-11T23:58:29.517Z,4.17
